Time;durP1;ratioP1;P1;durP2;ratioP2;P2;SDS_P1;SDS_P2;PMS_P1;PMS_P2;Temp;Humidity;BMP_temperature;BMP_pressure;BME280_temperature;BME280_humidity;BME280_pressure;Samples;Min_cycle;Max_cycle;Signal;HPM_P1;HPM_P2
2021/10/11 14:28:23;;;;;;;0.20;0.20;;;14.40;89.60;;;;;;5078857;23;20136;-83
2021/10/11 15:59:09;;;;;;;1.00;0.35;;;14.20;86.60;;;;;;4899664;29;20395;-82
2021/10/11 16:04:13;;;;;;;2.45;0.40;;;14.20;86.50;;;;;;4870447;29;20403;-80
2021/10/11 16:06:39;;;;;;;0.98;0.13;;;14.20;86.50;;;;;;4883293;29;20037;-82
2021/10/11 16:09:04;;;;;;;0.35;0.20;;;14.10;86.40;;;;;;4882631;29;20048;-82
2021/10/11 16:11:30;;;;;;;0.10;0.10;;;14.10;86.40;;;;;;4882731;29;20041;-82
2021/10/11 16:13:56;;;;;;;0.82;0.20;;;14.10;86.50;;;;;;4851859;29;20043;-82
2021/10/11 16:16:22;;;;;;;0.28;0.17;;;14.10;86.60;;;;;;4867288;29;20513;-79
2021/10/11 16:18:48;;;;;;;0.10;0.10;;;14.00;86.50;;;;;;4867032;29;20037;-79
2021/10/11 16:21:14;;;;;;;0.10;0.10;;;13.90;86.50;;;;;;4867617;29;20124;-78
2021/10/11 16:23:41;;;;;;;0.40;0.20;;;14.00;86.70;;;;;;4851688;29;20514;-79
2021/10/11 16:26:10;;;;;;;0.52;0.20;;;13.90;86.60;;;;;;4851716;29;20032;-79
2021/10/11 16:28:37;;;;;;;0.22;0.15;;;13.80;86.70;;;;;;4882448;29;20464;-79
2021/10/11 16:31:07;;;;;;;0.90;0.20;;;13.80;86.70;;;;;;4899631;29;20059;-79
2021/10/11 16:33:33;;;;;;;1.10;0.30;;;13.80;86.80;;;;;;4899514;29;20041;-78
2021/10/11 16:35:58;;;;;;;0.40;0.20;;;13.80;86.80;;;;;;4882413;29;20044;-79
2021/10/11 16:38:24;;;;;;;0.00;0.00;;;13.70;86.90;;;;;;4865893;29;20033;-79
2021/10/11 16:40:50;;;;;;;0.20;0.20;;;13.70;86.90;;;;;;4899333;29;20432;-79
2021/10/11 16:43:16;;;;;;;1.00;0.20;;;13.60;86.90;;;;;;4851190;29;20509;-79
2021/10/11 16:45:41;;;;;;;0.20;0.10;;;13.70;86.90;;;;;;4851201;29;20045;-79
2021/10/11 16:48:07;;;;;;;0.50;0.30;;;13.60;86.80;;;;;;4903167;29;20091;-79
2021/10/11 16:50:34;;;;;;;0.32;0.20;;;13.60;86.90;;;;;;4882251;29;20112;-79
2021/10/11 16:53:03;;;;;;;0.20;0.20;;;13.60;87.00;;;;;;4867147;29;20037;-81
2021/10/11 16:55:32;;;;;;;0.65;0.28;;;13.50;87.00;;;;;;4844379;29;20042;-84
2021/10/11 16:57:57;;;;;;;0.00;0.00;;;13.50;87.10;;;;;;4826726;29;20521;-83
2021/10/11 17:00:24;;;;;;;0.20;0.13;;;13.40;87.30;;;;;;4827507;29;20236;-83
2021/10/11 17:02:49;;;;;;;0.28;0.10;;;13.40;87.40;;;;;;4841105;29;20042;-83
2021/10/11 17:05:18;;;;;;;0.35;0.17;;;13.40;87.50;;;;;;4841882;29;20041;-83
2021/10/11 17:07:54;;;;;;;0.10;0.10;;;13.30;87.50;;;;;;4841801;29;20091;-84
2021/10/11 17:10:21;;;;;;;0.10;0.10;;;13.30;87.80;;;;;;4827883;29;20090;-83
2021/10/11 17:12:48;;;;;;;0.10;0.10;;;13.10;87.80;;;;;;4841481;29;20117;-82
2021/10/11 17:15:33;;;;;;;0.77;0.25;;;13.00;87.90;;;;;;4841473;29;20552;-84
2021/10/11 17:17:59;;;;;;;1.23;0.15;;;13.10;88.10;;;;;;4841138;29;20046;-83
2021/10/11 17:20:25;;;;;;;0.55;0.15;;;13.00;88.10;;;;;;4825688;29;20068;-83
2021/10/11 17:22:51;;;;;;;0.38;0.10;;;12.90;88.30;;;;;;4841353;29;20045;-83
2021/10/11 17:25:18;;;;;;;0.10;0.10;;;12.80;88.30;;;;;;4842306;29;20584;-79
2021/10/11 17:27:44;;;;;;;0.30;0.30;;;12.80;88.40;;;;;;4877943;29;20132;-78
2021/10/11 17:30:11;;;;;;;0.10;0.10;;;12.80;88.50;;;;;;4881443;29;20123;-79
2021/10/11 17:32:38;;;;;;;0.20;0.10;;;12.60;88.60;;;;;;4851313;29;20037;-79
2021/10/11 17:35:05;;;;;;;1.75;0.10;;;12.60;88.80;;;;;;4866516;29;20036;-79
2021/10/11 17:37:32;;;;;;;0.13;0.13;;;12.60;88.90;;;;;;4866012;29;20132;-79
2021/10/11 17:39:57;;;;;;;0.70;0.20;;;12.50;89.00;;;;;;4863845;29;20166;-80
2021/10/11 17:42:23;;;;;;;0.10;0.10;;;12.40;89.00;;;;;;4898226;29;20440;-78
2021/10/11 17:44:49;;;;;;;0.10;0.10;;;12.50;89.10;;;;;;4865904;29;20073;-78
2021/10/11 17:47:16;;;;;;;0.20;0.20;;;12.40;89.20;;;;;;4865819;29;20131;-78
2021/10/11 17:49:45;;;;;;;0.55;0.20;;;12.30;89.20;;;;;;4881292;29;20542;-79
2021/10/11 17:52:13;;;;;;;1.85;0.22;;;12.20;89.30;;;;;;4866646;29;20032;-79
2021/10/11 17:54:38;;;;;;;1.40;0.20;;;12.20;89.40;;;;;;4881778;29;20049;-78
2021/10/11 17:57:04;;;;;;;0.22;0.20;;;12.10;89.50;;;;;;4881006;29;20582;-79
2021/10/11 17:59:30;;;;;;;0.30;0.30;;;12.10;89.60;;;;;;4880857;29;20533;-79
2021/10/11 18:01:56;;;;;;;1.55;0.28;;;12.00;89.70;;;;;;4881492;29;20048;-78
2021/10/11 18:04:21;;;;;;;1.13;0.30;;;11.90;89.80;;;;;;4881317;29;20039;-79
2021/10/11 18:06:48;;;;;;;0.22;0.20;;;11.80;89.80;;;;;;4865241;29;20049;-79
2021/10/11 18:09:15;;;;;;;0.20;0.20;;;11.80;89.90;;;;;;4880671;29;20604;-79
2021/10/11 18:11:41;;;;;;;0.20;0.17;;;11.70;90.00;;;;;;4865601;29;20503;-79
2021/10/11 18:14:06;;;;;;;0.20;0.10;;;11.70;90.00;;;;;;4897747;29;20052;-78
2021/10/11 18:16:32;;;;;;;0.85;0.30;;;11.70;90.00;;;;;;4881532;29;20059;-79
2021/10/11 18:18:58;;;;;;;0.25;0.25;;;11.60;90.00;;;;;;4895632;29;20169;-79
2021/10/11 18:21:24;;;;;;;0.10;0.10;;;11.60;90.00;;;;;;4881002;29;20033;-83
2021/10/11 18:23:50;;;;;;;0.65;0.30;;;11.60;90.00;;;;;;4849974;29;20131;-81
2021/10/11 18:26:16;;;;;;;0.35;0.20;;;11.50;90.00;;;;;;4865519;29;20407;-81
2021/10/11 18:28:42;;;;;;;0.17;0.17;;;11.50;90.10;;;;;;4861834;29;20049;-83
2021/10/11 18:31:10;;;;;;;0.40;0.30;;;11.70;90.20;;;;;;4883309;29;20049;-80
2021/10/11 18:33:36;;;;;;;0.10;0.10;;;11.40;90.10;;;;;;4897684;29;20056;-81
2021/10/11 18:36:02;;;;;;;0.20;0.20;;;11.50;90.10;;;;;;4897870;29;20048;-84
2021/10/11 18:38:29;;;;;;;0.20;0.20;;;11.50;90.10;;;;;;4866070;29;20055;-83
2021/10/11 18:40:54;;;;;;;0.25;0.20;;;11.40;90.10;;;;;;4865080;29;20043;-81
2021/10/11 18:43:21;;;;;;;0.30;0.20;;;11.40;90.00;;;;;;4896933;29;20459;-81
2021/10/11 18:45:47;;;;;;;0.20;0.20;;;11.40;90.00;;;;;;4896986;29;20041;-82
2021/10/11 18:48:13;;;;;;;0.13;0.10;;;11.40;90.00;;;;;;4864891;29;20067;-82
2021/10/11 18:50:38;;;;;;;0.38;0.22;;;11.40;90.00;;;;;;4897151;29;20149;-83
2021/10/11 18:53:04;;;;;;;1.75;0.32;;;11.50;90.00;;;;;;4880243;29;20501;-82
2021/10/11 18:55:30;;;;;;;0.20;0.20;;;11.40;90.00;;;;;;4864564;29;20060;-82
2021/10/11 18:57:56;;;;;;;0.98;0.20;;;11.40;90.00;;;;;;4864321;29;20032;-83
2021/10/11 19:00:22;;;;;;;0.28;0.22;;;11.40;90.00;;;;;;4879997;29;20119;-82
2021/10/11 19:02:48;;;;;;;0.20;0.20;;;11.20;90.00;;;;;;4880352;29;20444;-81
2021/10/11 19:05:19;;;;;;;0.20;0.20;;;11.30;90.00;;;;;;4864749;29;20071;-85
2021/10/11 19:07:45;;;;;;;0.20;0.20;;;11.30;90.10;;;;;;4850323;29;20041;-84
2021/10/11 19:10:11;;;;;;;0.45;0.20;;;11.20;90.10;;;;;;4880085;29;20039;-82
2021/10/11 19:12:37;;;;;;;0.20;0.20;;;11.20;90.10;;;;;;4897254;29;20102;-85
2021/10/11 19:15:04;;;;;;;0.57;0.30;;;11.20;90.10;;;;;;4864919;29;20059;-85
2021/10/11 19:17:30;;;;;;;0.20;0.20;;;11.20;90.20;;;;;;4880349;29;20044;-86
2021/10/11 19:19:56;;;;;;;0.22;0.22;;;11.10;90.20;;;;;;4864477;29;20040;-85
2021/10/11 19:22:24;;;;;;;0.60;0.20;;;11.10;90.20;;;;;;4864626;29;20048;-82
2021/10/11 19:24:50;;;;;;;0.20;0.20;;;11.10;90.20;;;;;;4865152;29;20100;-82
2021/10/11 19:27:15;;;;;;;0.45;0.32;;;11.20;90.20;;;;;;4864324;29;20045;-81
2021/10/11 19:29:41;;;;;;;0.47;0.28;;;11.10;90.20;;;;;;4879840;29;20048;-81
2021/10/11 19:32:07;;;;;;;0.52;0.20;;;11.00;90.20;;;;;;4880411;29;20475;-81
2021/10/11 19:34:32;;;;;;;0.15;0.15;;;11.00;90.20;;;;;;4879693;29;20048;-81
2021/10/11 19:36:59;;;;;;;0.40;0.10;;;11.00;90.20;;;;;;4879655;29;20376;-81
2021/10/11 19:39:25;;;;;;;0.73;0.20;;;11.00;90.20;;;;;;4880106;29;20135;-80
2021/10/11 19:41:50;;;;;;;0.35;0.13;;;11.00;90.20;;;;;;4897035;29;20376;-80
2021/10/11 19:44:16;;;;;;;0.43;0.20;;;11.00;90.20;;;;;;4879869;29;20084;-82
2021/10/11 19:46:42;;;;;;;0.20;0.10;;;11.00;90.30;;;;;;4878947;29;20124;-81
2021/10/11 19:49:10;;;;;;;1.52;0.30;;;10.90;90.30;;;;;;4879856;29;20037;-81
2021/10/11 19:51:36;;;;;;;0.20;0.20;;;10.90;90.20;;;;;;4880692;29;20432;-83
2021/10/11 19:54:02;;;;;;;0.30;0.20;;;10.90;90.30;;;;;;4896326;29;20213;-84
2021/10/11 19:56:27;;;;;;;0.17;0.17;;;10.90;90.30;;;;;;4879512;29;20067;-82
2021/10/11 19:58:53;;;;;;;0.40;0.20;;;10.80;90.30;;;;;;4862912;29;20037;-82
2021/10/11 20:01:19;;;;;;;0.57;0.30;;;10.80;90.30;;;;;;4896282;29;20051;-80
2021/10/11 20:03:46;;;;;;;0.30;0.22;;;10.90;90.30;;;;;;4879609;29;20039;-80
2021/10/11 20:06:12;;;;;;;0.52;0.20;;;10.80;90.30;;;;;;4879435;29;20543;-80
2021/10/11 20:08:38;;;;;;;0.43;0.13;;;11.00;90.30;;;;;;4879792;29;20041;-80
2021/10/11 20:11:03;;;;;;;0.10;0.10;;;10.90;90.30;;;;;;4864300;29;20096;-80
2021/10/11 20:13:29;;;;;;;0.40;0.28;;;10.90;90.20;;;;;;4881784;29;20053;-80
2021/10/11 20:15:57;;;;;;;0.13;0.13;;;10.90;90.20;;;;;;4882845;29;20443;-81
2021/10/11 20:18:24;;;;;;;0.10;0.10;;;11.00;90.20;;;;;;4899477;29;20052;-81
2021/10/11 20:20:51;;;;;;;0.40;0.30;;;10.90;90.20;;;;;;4883033;29;20041;-81
2021/10/11 20:23:16;;;;;;;0.30;0.20;;;10.90;90.20;;;;;;4866791;29;20045;-82
2021/10/11 20:25:42;;;;;;;0.40;0.30;;;10.90;90.20;;;;;;4899138;29;20116;-81
2021/10/11 20:28:08;;;;;;;0.35;0.30;;;11.00;90.20;;;;;;4882510;29;20411;-81
2021/10/11 20:30:35;;;;;;;0.20;0.20;;;11.00;90.50;;;;;;4899273;29;20052;-81
2021/10/11 20:34:09;;;;;;;0.20;0.20;;;11.00;90.20;;;;;;4882325;29;20056;-89
2021/10/11 20:36:36;;;;;;;0.85;0.20;;;11.00;90.20;;;;;;4884126;29;20562;-83
2021/10/11 20:39:03;;;;;;;0.20;0.20;;;11.00;90.20;;;;;;4882568;29;20072;-81
2021/10/11 20:41:29;;;;;;;0.25;0.25;;;10.90;90.10;;;;;;4899423;29;20033;-80
2021/10/11 20:43:55;;;;;;;0.68;0.30;;;11.00;90.20;;;;;;4899528;29;20467;-80
2021/10/11 20:46:20;;;;;;;0.40;0.20;;;11.10;90.20;;;;;;4867517;29;20049;-80
2021/10/11 20:48:46;;;;;;;0.22;0.20;;;10.90;90.10;;;;;;4880160;29;20454;-78
2021/10/11 20:51:12;;;;;;;0.28;0.28;;;11.00;90.20;;;;;;4899153;29;20510;-78
2021/10/11 20:53:38;;;;;;;0.15;0.15;;;11.00;90.20;;;;;;4851123;29;20072;-79
2021/10/11 20:56:04;;;;;;;0.28;0.28;;;11.00;90.20;;;;;;4866803;29;20116;-81
2021/10/11 20:58:31;;;;;;;0.38;0.30;;;11.00;90.20;;;;;;4865258;29;20029;-81
2021/10/11 21:00:57;;;;;;;0.20;0.10;;;11.00;90.20;;;;;;4882378;29;20032;-80
2021/10/11 21:03:25;;;;;;;0.22;0.22;;;11.00;90.20;;;;;;4866908;29;20040;-80
2021/10/11 21:05:52;;;;;;;0.20;0.17;;;10.90;90.30;;;;;;4882291;29;20395;-81
2021/10/11 21:08:18;;;;;;;0.28;0.20;;;10.90;90.30;;;;;;4851479;29;20040;-81
2021/10/11 21:10:47;;;;;;;0.32;0.20;;;10.90;90.30;;;;;;4899106;29;20081;-78
2021/10/11 21:13:15;;;;;;;0.30;0.30;;;10.90;90.30;;;;;;4882304;29;20104;-80
2021/10/11 21:15:41;;;;;;;0.40;0.20;;;10.90;90.40;;;;;;4865140;29;20048;-80
2021/10/11 21:18:07;;;;;;;0.13;0.13;;;10.80;90.40;;;;;;4866154;29;20049;-79
2021/10/11 21:20:34;;;;;;;0.20;0.20;;;10.90;90.40;;;;;;4899099;29;20045;-79
2021/10/11 21:23:02;;;;;;;0.82;0.30;;;10.90;90.40;;;;;;4898856;29;20044;-78
2021/10/11 21:25:27;;;;;;;0.50;0.28;;;10.90;90.40;;;;;;4899549;29;20032;-82
2021/10/11 21:27:54;;;;;;;0.47;0.25;;;10.90;90.40;;;;;;4850896;29;20051;-80
2021/10/11 21:30:20;;;;;;;0.85;0.30;;;10.90;90.40;;;;;;4899899;29;20066;-81
2021/10/11 21:32:46;;;;;;;0.20;0.20;;;10.90;90.40;;;;;;4866762;29;20033;-80
2021/10/11 21:35:25;;;;;;;0.45;0.30;;;10.90;90.40;;;;;;4882452;29;20051;-91
2021/10/11 21:37:52;;;;;;;0.95;0.22;;;10.90;90.40;;;;;;4866039;29;20119;-79
2021/10/11 21:40:19;;;;;;;0.20;0.20;;;11.00;90.40;;;;;;4850664;29;20052;-78
2021/10/11 21:42:45;;;;;;;0.68;0.20;;;11.00;90.40;;;;;;4898138;29;20045;-79
2021/10/11 21:45:11;;;;;;;0.45;0.20;;;11.00;90.40;;;;;;4881407;29;20452;-79
2021/10/11 21:47:37;;;;;;;0.10;0.10;;;11.00;90.40;;;;;;4881046;29;20096;-79
2021/10/11 21:50:05;;;;;;;0.38;0.20;;;11.00;90.40;;;;;;4865659;29;20029;-79
2021/10/11 21:52:31;;;;;;;0.15;0.15;;;11.00;90.30;;;;;;4881085;29;20471;-79
2021/10/11 21:54:56;;;;;;;1.00;0.20;;;11.10;90.30;;;;;;4892595;29;20032;-80
2021/10/11 21:57:22;;;;;;;0.52;0.20;;;11.10;90.30;;;;;;4868957;29;20203;-79
2021/10/11 21:59:48;;;;;;;0.25;0.25;;;11.10;90.30;;;;;;4885407;29;20499;-79
2021/10/11 22:02:14;;;;;;;0.63;0.30;;;11.10;90.30;;;;;;4886054;29;20048;-79
2021/10/11 22:04:42;;;;;;;0.63;0.22;;;11.10;90.30;;;;;;4902515;29;20069;-79
2021/10/11 22:07:08;;;;;;;0.93;0.22;;;11.10;90.30;;;;;;4871992;29;20056;-80
2021/10/11 22:09:34;;;;;;;0.20;0.20;;;11.10;90.30;;;;;;4879912;29;20048;-80
2021/10/11 22:12:01;;;;;;;0.82;0.40;;;11.10;90.30;;;;;;4880549;29;20101;-80
2021/10/11 22:14:26;;;;;;;0.10;0.10;;;11.10;90.30;;;;;;4875821;29;20056;-80
2021/10/11 22:16:52;;;;;;;0.20;0.20;;;11.10;90.30;;;;;;4901981;29;20043;-79
2021/10/11 22:19:18;;;;;;;0.17;0.17;;;11.10;90.40;;;;;;4846536;29;20042;-79
2021/10/11 22:21:46;;;;;;;0.22;0.20;;;11.20;90.40;;;;;;4846424;29;20034;-79
2021/10/11 22:24:16;;;;;;;0.45;0.20;;;11.20;90.40;;;;;;4804982;29;20070;-78
2021/10/11 22:26:42;;;;;;;0.20;0.20;;;11.20;90.40;;;;;;4756323;30;20051;-79
2021/10/11 22:29:10;;;;;;;1.15;0.20;;;11.10;90.40;;;;;;4757348;30;20120;-79
2021/10/11 22:31:39;;;;;;;0.20;0.20;;;11.10;90.40;;;;;;4770572;30;20079;-79
2021/10/11 22:34:08;;;;;;;0.20;0.20;;;11.20;90.40;;;;;;4783970;30;20093;-79
2021/10/11 22:36:34;;;;;;;0.25;0.10;;;11.20;90.40;;;;;;4781455;30;20059;-78
2021/10/11 22:39:00;;;;;;;1.45;0.20;;;11.20;90.40;;;;;;4785151;30;20186;-79
2021/10/11 22:41:26;;;;;;;0.43;0.25;;;11.20;90.40;;;;;;4783247;30;20447;-79
2021/10/11 22:43:52;;;;;;;1.08;0.30;;;11.20;90.40;;;;;;4782214;30;20060;-79
2021/10/11 22:46:18;;;;;;;0.45;0.20;;;11.20;90.40;;;;;;4783997;29;20068;-79
2021/10/11 22:48:43;;;;;;;0.25;0.20;;;11.30;90.40;;;;;;4769316;30;20056;-79
2021/10/11 22:51:10;;;;;;;0.20;0.20;;;11.20;90.40;;;;;;4813869;29;20075;-79
2021/10/11 22:53:36;;;;;;;0.20;0.20;;;11.20;90.40;;;;;;4807736;29;20122;-78
2021/10/11 22:56:02;;;;;;;1.10;0.40;;;11.20;90.50;;;;;;4841687;29;20046;-79
2021/10/11 22:58:28;;;;;;;0.20;0.20;;;11.20;90.50;;;;;;4854514;29;20037;-78
2021/10/11 23:00:54;;;;;;;0.98;0.30;;;11.20;90.50;;;;;;4854627;29;20132;-78
2021/10/11 23:03:19;;;;;;;0.25;0.22;;;11.30;90.50;;;;;;4881411;29;20063;-78
2021/10/11 23:05:46;;;;;;;0.73;0.30;;;11.30;90.50;;;;;;4849266;29;20124;-78
2021/10/11 23:08:12;;;;;;;0.63;0.30;;;11.20;90.50;;;;;;4864824;29;20124;-78
2021/10/11 23:10:38;;;;;;;0.25;0.20;;;11.20;90.60;;;;;;4864331;29;20127;-78
2021/10/11 23:13:04;;;;;;;0.30;0.30;;;11.20;90.60;;;;;;4864449;29;20041;-78
2021/10/11 23:15:29;;;;;;;0.70;0.30;;;11.20;90.60;;;;;;4864235;29;20028;-78
2021/10/11 23:17:55;;;;;;;0.20;0.20;;;11.20;90.60;;;;;;4896937;29;20479;-79
2021/10/11 23:20:21;;;;;;;0.20;0.20;;;11.20;90.60;;;;;;4896750;29;20040;-79
2021/10/11 23:22:50;;;;;;;0.15;0.10;;;11.20;90.70;;;;;;4864663;29;20447;-78
2021/10/11 23:25:18;;;;;;;0.52;0.28;;;11.30;90.70;;;;;;4880087;29;20052;-79
2021/10/11 23:27:45;;;;;;;0.20;0.20;;;11.20;90.70;;;;;;4864945;29;20049;-79
2021/10/11 23:30:11;;;;;;;1.23;0.20;;;11.30;90.80;;;;;;4880021;29;20036;-79
2021/10/11 23:32:38;;;;;;;0.22;0.22;;;11.30;90.80;;;;;;4864278;29;20043;-79
2021/10/11 23:35:05;;;;;;;0.73;0.30;;;11.30;90.80;;;;;;4849125;29;20041;-79
2021/10/11 23:37:30;;;;;;;0.50;0.17;;;11.20;90.80;;;;;;4864585;29;20037;-80
2021/10/11 23:39:56;;;;;;;0.30;0.30;;;11.30;91.10;;;;;;4864659;29;20372;-79
2021/10/11 23:42:22;;;;;;;0.40;0.40;;;11.30;90.80;;;;;;4896927;29;20032;-79
2021/10/11 23:44:48;;;;;;;0.30;0.15;;;11.30;90.80;;;;;;4879638;29;20139;-79
2021/10/11 23:47:13;;;;;;;1.05;0.30;;;11.30;90.80;;;;;;4850727;29;20123;-79
2021/10/11 23:49:39;;;;;;;0.57;0.13;;;11.20;90.80;;;;;;4883145;29;20073;-79
2021/10/11 23:52:05;;;;;;;0.20;0.20;;;11.30;90.90;;;;;;4900177;29;20040;-79
2021/10/11 23:54:31;;;;;;;0.22;0.20;;;11.30;90.90;;;;;;4882982;29;20052;-79
2021/10/11 23:56:56;;;;;;;0.15;0.15;;;11.30;90.90;;;;;;4883459;29;20467;-79
2021/10/11 23:59:22;;;;;;;0.20;0.20;;;11.20;90.90;;;;;;4900159;29;20052;-79
